Aérodrome :
LOGIN :

S'inscrire | Disclaimer

   EN    FR    IT 

 










Légende :    VFR   VFR Marginal   IFR   IFR Intensif   IFR Très Intensif
Visi : 
Plafond : 
>= 8 km
>= 3000ft
5 à 8 km
1000 à 3000 ft
1500m à 5 km
500 à 1000 ft
800 à 1500m
200 à 500 ft
< 800m
< 200 ft
Symboles :   Orages  Brouillard  Fortes neiges  Fortes précipitations  Vent > 20 kt
SIGMETs :   Divers  Orages  Givrage  Turbulence  Onde Orograph.  Cendres Volcan.






- Altitude de l'aérodrome : 13 ft
- Code IATA : LYX


EGMD - Lydd

DERNIER METAR :
  • 270620Z AUTO 04004KT 010V070 9999 NCD 16/11 Q1036

METARs EXPIRÉS :
  • 270550Z AUTO 35003KT 9999 NCD 14/11 Q1036
  • 270520Z AUTO 34004KT 9999 NCD 12/10 Q1036
  • 270450Z AUTO 36005KT 9999 NCD 10/09 Q1035
  • 270420Z AUTO 01005KT 9999 NCD 09/08 Q1035
  • 270350Z AUTO 01006KT 9999 NCD 09/08 Q1035

TAF TAF EGMD
Valide du 27 à 04h jusqu'au 27 à 12h UTC


270438Z 2704/2712 02006KT CAVOK
ATIS : +44 1797 322 422



MET'MAP, la Météo Aéronautique d'un coup d'oeil ! - Copyright ORBIFLY Décembre 2007 - Disclaimer

ORBIFLY MET'MAP TEAM :

Programmation & Développement : Alexandra Zaïnal
Sur une idée originale de : Baudouin d'Aumeries
Assistance à la programmation : Marc-Olivier Méhu
Soutien technique & logistique : Manuel Goepfert

Contact : metmap@orbifly.com




SOURCES & CREDITS :

   NOAA